sensor_id;sensor_type;location;lat;lon;timestamp;P1;durP1;ratioP1;P2;durP2;ratioP2
32790;SDS011;19143;59.322;14.502;2023-08-30T00:01:57;2.50;;;2.07;;
32790;SDS011;19143;59.322;14.502;2023-08-30T00:04:25;2.10;;;1.90;;
32790;SDS011;19143;59.322;14.502;2023-08-30T00:06:52;7.23;;;2.13;;
32790;SDS011;19143;59.322;14.502;2023-08-30T00:09:20;4.83;;;1.90;;
32790;SDS011;19143;59.322;14.502;2023-08-30T00:11:46;3.53;;;1.90;;
32790;SDS011;19143;59.322;14.502;2023-08-30T00:14:20;1.50;;;1.50;;
32790;SDS011;19143;59.322;14.502;2023-08-30T00:16:47;6.30;;;2.20;;
32790;SDS011;19143;59.322;14.502;2023-08-30T00:19:19;2.67;;;1.90;;
32790;SDS011;19143;59.322;14.502;2023-08-30T00:21:49;1.80;;;1.70;;
32790;SDS011;19143;59.322;14.502;2023-08-30T00:24:23;2.57;;;1.80;;
32790;SDS011;19143;59.322;14.502;2023-08-30T00:26:51;2.90;;;2.07;;
32790;SDS011;19143;59.322;14.502;2023-08-30T00:29:23;6.73;;;1.90;;
32790;SDS011;19143;59.322;14.502;2023-08-30T00:31:51;6.80;;;2.07;;
32790;SDS011;19143;59.322;14.502;2023-08-30T00:34:23;2.37;;;1.87;;
32790;SDS011;19143;59.322;14.502;2023-08-30T00:37:14;2.00;;;1.83;;
32790;SDS011;19143;59.322;14.502;2023-08-30T00:39:55;3.20;;;2.00;;
32790;SDS011;19143;59.322;14.502;2023-08-30T00:43:10;4.87;;;2.10;;
32790;SDS011;19143;59.322;14.502;2023-08-30T00:45:29;2.10;;;2.00;;
32790;SDS011;19143;59.322;14.502;2023-08-30T00:48:09;2.67;;;1.87;;
32790;SDS011;19143;59.322;14.502;2023-08-30T00:50:55;2.33;;;1.90;;
32790;SDS011;19143;59.322;14.502;2023-08-30T00:53:22;2.23;;;1.80;;
32790;SDS011;19143;59.322;14.502;2023-08-30T00:55:58;3.90;;;2.30;;
32790;SDS011;19143;59.322;14.502;2023-08-30T01:01:06;8.37;;;2.13;;
32790;SDS011;19143;59.322;14.502;2023-08-30T01:03:36;2.13;;;1.93;;
32790;SDS011;19143;59.322;14.502;2023-08-30T01:06:21;5.53;;;2.33;;
32790;SDS011;19143;59.322;14.502;2023-08-30T01:09:00;2.23;;;2.03;;
32790;SDS011;19143;59.322;14.502;2023-08-30T01:26:18;2.90;;;2.10;;
32790;SDS011;19143;59.322;14.502;2023-08-30T01:29:00;5.10;;;2.23;;
32790;SDS011;19143;59.322;14.502;2023-08-30T01:31:28;4.33;;;2.43;;
32790;SDS011;19143;59.322;14.502;2023-08-30T01:33:56;5.83;;;1.90;;
32790;SDS011;19143;59.322;14.502;2023-08-30T01:36:29;3.93;;;2.23;;
32790;SDS011;19143;59.322;14.502;2023-08-30T01:38:59;3.50;;;2.50;;
32790;SDS011;19143;59.322;14.502;2023-08-30T01:41:47;5.30;;;2.30;;
32790;SDS011;19143;59.322;14.502;2023-08-30T01:44:39;2.17;;;2.07;;
32790;SDS011;19143;59.322;14.502;2023-08-30T01:47:39;4.10;;;2.50;;
32790;SDS011;19143;59.322;14.502;2023-08-30T01:50:11;5.50;;;2.17;;
32790;SDS011;19143;59.322;14.502;2023-08-30T01:52:38;2.37;;;2.20;;
32790;SDS011;19143;59.322;14.502;2023-08-30T01:55:13;2.93;;;2.20;;
32790;SDS011;19143;59.322;14.502;2023-08-30T01:57:45;2.77;;;2.13;;
32790;SDS011;19143;59.322;14.502;2023-08-30T02:00:20;3.10;;;2.60;;
32790;SDS011;19143;59.322;14.502;2023-08-30T02:02:55;5.87;;;2.23;;
32790;SDS011;19143;59.322;14.502;2023-08-30T02:06:00;4.93;;;2.33;;
32790;SDS011;19143;59.322;14.502;2023-08-30T02:08:35;5.73;;;2.33;;
32790;SDS011;19143;59.322;14.502;2023-08-30T02:11:11;7.83;;;2.27;;
32790;SDS011;19143;59.322;14.502;2023-08-30T02:13:43;6.10;;;2.37;;
32790;SDS011;19143;59.322;14.502;2023-08-30T02:16:42;7.73;;;2.27;;
32790;SDS011;19143;59.322;14.502;2023-08-30T02:19:30;3.13;;;1.83;;
32790;SDS011;19143;59.322;14.502;2023-08-30T02:22:14;3.70;;;2.30;;
32790;SDS011;19143;59.322;14.502;2023-08-30T02:24:49;3.03;;;2.13;;
32790;SDS011;19143;59.322;14.502;2023-08-30T02:30:32;2.83;;;2.17;;
32790;SDS011;19143;59.322;14.502;2023-08-30T02:33:02;3.43;;;2.10;;
32790;SDS011;19143;59.322;14.502;2023-08-30T02:35:31;2.07;;;1.80;;
32790;SDS011;19143;59.322;14.502;2023-08-30T02:38:05;2.40;;;2.20;;
32790;SDS011;19143;59.322;14.502;2023-08-30T02:43:34;5.50;;;1.87;;
32790;SDS011;19143;59.322;14.502;2023-08-30T02:46:04;2.97;;;2.10;;
32790;SDS011;19143;59.322;14.502;2023-08-30T02:48:39;4.30;;;2.10;;
32790;SDS011;19143;59.322;14.502;2023-08-30T02:51:21;2.40;;;2.20;;
32790;SDS011;19143;59.322;14.502;2023-08-30T02:53:52;3.30;;;2.00;;
32790;SDS011;19143;59.322;14.502;2023-08-30T02:56:22;2.93;;;1.87;;
32790;SDS011;19143;59.322;14.502;2023-08-30T03:00:34;6.73;;;1.80;;
32790;SDS011;19143;59.322;14.502;2023-08-30T03:01:40;6.27;;;2.17;;
32790;SDS011;19143;59.322;14.502;2023-08-30T03:04:11;2.20;;;1.70;;
32790;SDS011;19143;59.322;14.502;2023-08-30T03:09:42;2.90;;;2.13;;
32790;SDS011;19143;59.322;14.502;2023-08-30T03:15:06;7.57;;;2.73;;
32790;SDS011;19143;59.322;14.502;2023-08-30T03:17:35;9.50;;;2.10;;
32790;SDS011;19143;59.322;14.502;2023-08-30T03:20:07;8.13;;;2.30;;
32790;SDS011;19143;59.322;14.502;2023-08-30T03:22:44;6.03;;;2.30;;
32790;SDS011;19143;59.322;14.502;2023-08-30T03:25:15;5.10;;;2.37;;
32790;SDS011;19143;59.322;14.502;2023-08-30T03:27:44;4.27;;;2.40;;
32790;SDS011;19143;59.322;14.502;2023-08-30T03:30:12;5.90;;;2.60;;
32790;SDS011;19143;59.322;14.502;2023-08-30T03:33:19;4.30;;;2.30;;
32790;SDS011;19143;59.322;14.502;2023-08-30T03:35:41;3.53;;;2.60;;
32790;SDS011;19143;59.322;14.502;2023-08-30T03:38:21;2.90;;;2.33;;
32790;SDS011;19143;59.322;14.502;2023-08-30T03:40:52;4.27;;;2.50;;
32790;SDS011;19143;59.322;14.502;2023-08-30T03:43:25;4.37;;;2.33;;
32790;SDS011;19143;59.322;14.502;2023-08-30T03:46:22;11.30;;;3.33;;
32790;SDS011;19143;59.322;14.502;2023-08-30T03:48:43;3.40;;;2.30;;
32790;SDS011;19143;59.322;14.502;2023-08-30T03:51:15;2.80;;;2.60;;
32790;SDS011;19143;59.322;14.502;2023-08-30T03:53:47;5.33;;;2.40;;
32790;SDS011;19143;59.322;14.502;2023-08-30T03:59:07;9.10;;;3.40;;
32790;SDS011;19143;59.322;14.502;2023-08-30T04:01:40;4.43;;;2.90;;
32790;SDS011;19143;59.322;14.502;2023-08-30T04:04:08;6.87;;;2.90;;
32790;SDS011;19143;59.322;14.502;2023-08-30T04:06:45;3.30;;;2.77;;
32790;SDS011;19143;59.322;14.502;2023-08-30T04:09:17;3.20;;;2.87;;
32790;SDS011;19143;59.322;14.502;2023-08-30T04:11:48;3.43;;;2.80;;
32790;SDS011;19143;59.322;14.502;2023-08-30T04:14:19;2.80;;;2.60;;
32790;SDS011;19143;59.322;14.502;2023-08-30T04:16:55;3.83;;;2.90;;
32790;SDS011;19143;59.322;14.502;2023-08-30T04:19:22;4.40;;;2.70;;
32790;SDS011;19143;59.322;14.502;2023-08-30T04:22:02;8.43;;;3.23;;
32790;SDS011;19143;59.322;14.502;2023-08-30T04:24:48;6.27;;;3.07;;
32790;SDS011;19143;59.322;14.502;2023-08-30T04:27:15;9.97;;;3.77;;
32790;SDS011;19143;59.322;14.502;2023-08-30T04:29:44;3.83;;;3.27;;
32790;SDS011;19143;59.322;14.502;2023-08-30T04:32:17;6.07;;;3.67;;
32790;SDS011;19143;59.322;14.502;2023-08-30T06:23:46;4.83;;;2.40;;
32790;SDS011;19143;59.322;14.502;2023-08-30T06:31:20;4.63;;;2.27;;
32790;SDS011;19143;59.322;14.502;2023-08-30T07:50:42;1.10;;;1.00;;
32790;SDS011;19143;59.322;14.502;2023-08-30T07:53:12;0.80;;;0.80;;
32790;SDS011;19143;59.322;14.502;2023-08-30T07:55:58;1.33;;;0.80;;
32790;SDS011;19143;59.322;14.502;2023-08-30T07:58:40;1.00;;;0.93;;
32790;SDS011;19143;59.322;14.502;2023-08-30T08:01:26;1.03;;;1.00;;
32790;SDS011;19143;59.322;14.502;2023-08-30T08:03:59;0.70;;;0.70;;
32790;SDS011;19143;59.322;14.502;2023-08-30T08:09:26;1.80;;;0.90;;
32790;SDS011;19143;59.322;14.502;2023-08-30T08:12:08;1.70;;;1.00;;
32790;SDS011;19143;59.322;14.502;2023-08-30T08:14:52;1.10;;;1.00;;
32790;SDS011;19143;59.322;14.502;2023-08-30T08:17:41;2.00;;;0.97;;
32790;SDS011;19143;59.322;14.502;2023-08-30T08:20:47;3.53;;;1.20;;
32790;SDS011;19143;59.322;14.502;2023-08-30T08:23:30;1.03;;;0.90;;
32790;SDS011;19143;59.322;14.502;2023-08-30T08:26:13;0.90;;;0.90;;
32790;SDS011;19143;59.322;14.502;2023-08-30T08:29:12;0.73;;;0.70;;
32790;SDS011;19143;59.322;14.502;2023-08-30T08:31:39;0.90;;;0.90;;
32790;SDS011;19143;59.322;14.502;2023-08-30T08:34:17;1.83;;;0.80;;
32790;SDS011;19143;59.322;14.502;2023-08-30T08:36:49;0.80;;;0.80;;
32790;SDS011;19143;59.322;14.502;2023-08-30T08:39:31;0.83;;;0.83;;
32790;SDS011;19143;59.322;14.502;2023-08-30T08:42:08;0.73;;;0.70;;
32790;SDS011;19143;59.322;14.502;2023-08-30T08:44:36;0.80;;;0.80;;
32790;SDS011;19143;59.322;14.502;2023-08-30T08:47:06;1.43;;;0.80;;
32790;SDS011;19143;59.322;14.502;2023-08-30T08:49:34;2.87;;;1.20;;
32790;SDS011;19143;59.322;14.502;2023-08-30T08:52:03;1.50;;;0.90;;
32790;SDS011;19143;59.322;14.502;2023-08-30T08:54:32;1.10;;;1.10;;
32790;SDS011;19143;59.322;14.502;2023-08-30T08:57:03;0.97;;;0.77;;
32790;SDS011;19143;59.322;14.502;2023-08-30T08:59:30;0.70;;;0.70;;
32790;SDS011;19143;59.322;14.502;2023-08-30T09:02:04;1.20;;;1.10;;
32790;SDS011;19143;59.322;14.502;2023-08-30T09:04:36;1.10;;;1.00;;
32790;SDS011;19143;59.322;14.502;2023-08-30T09:07:05;0.90;;;0.90;;
32790;SDS011;19143;59.322;14.502;2023-08-30T09:09:34;0.80;;;0.80;;
32790;SDS011;19143;59.322;14.502;2023-08-30T09:12:05;2.33;;;0.83;;
32790;SDS011;19143;59.322;14.502;2023-08-30T09:14:34;1.17;;;1.10;;
32790;SDS011;19143;59.322;14.502;2023-08-30T09:17:19;1.83;;;1.00;;
32790;SDS011;19143;59.322;14.502;2023-08-30T09:20:04;2.23;;;1.00;;
32790;SDS011;19143;59.322;14.502;2023-08-30T09:22:51;2.93;;;1.07;;
32790;SDS011;19143;59.322;14.502;2023-08-30T09:28:20;1.33;;;1.23;;
32790;SDS011;19143;59.322;14.502;2023-08-30T09:30:59;1.00;;;1.00;;
32790;SDS011;19143;59.322;14.502;2023-08-30T09:36:39;2.13;;;1.10;;
32790;SDS011;19143;59.322;14.502;2023-08-30T09:39:20;1.33;;;0.90;;
32790;SDS011;19143;59.322;14.502;2023-08-30T09:41:53;1.13;;;1.13;;
32790;SDS011;19143;59.322;14.502;2023-08-30T09:44:21;1.10;;;1.07;;
32790;SDS011;19143;59.322;14.502;2023-08-30T09:46:50;4.57;;;0.90;;
32790;SDS011;19143;59.322;14.502;2023-08-30T09:49:18;1.10;;;1.10;;
32790;SDS011;19143;59.322;14.502;2023-08-30T09:51:47;1.43;;;1.00;;
32790;SDS011;19143;59.322;14.502;2023-08-30T09:54:14;1.17;;;1.10;;
32790;SDS011;19143;59.322;14.502;2023-08-30T09:56:42;1.00;;;1.00;;
32790;SDS011;19143;59.322;14.502;2023-08-30T09:59:10;1.40;;;1.03;;
32790;SDS011;19143;59.322;14.502;2023-08-30T10:01:41;3.33;;;1.10;;
32790;SDS011;19143;59.322;14.502;2023-08-30T10:04:08;1.20;;;1.20;;
32790;SDS011;19143;59.322;14.502;2023-08-30T10:06:35;1.60;;;1.13;;
32790;SDS011;19143;59.322;14.502;2023-08-30T10:09:08;2.50;;;0.97;;
32790;SDS011;19143;59.322;14.502;2023-08-30T10:11:35;1.00;;;1.00;;
32790;SDS011;19143;59.322;14.502;2023-08-30T10:14:02;1.07;;;0.97;;
32790;SDS011;19143;59.322;14.502;2023-08-30T10:16:31;0.93;;;0.93;;
32790;SDS011;19143;59.322;14.502;2023-08-30T10:19:02;1.10;;;1.00;;
32790;SDS011;19143;59.322;14.502;2023-08-30T10:21:29;2.90;;;1.33;;
32790;SDS011;19143;59.322;14.502;2023-08-30T10:23:56;0.93;;;0.90;;
32790;SDS011;19143;59.322;14.502;2023-08-30T10:30:01;1.00;;;0.90;;
32790;SDS011;19143;59.322;14.502;2023-08-30T10:41:24;1.90;;;1.10;;
32790;SDS011;19143;59.322;14.502;2023-08-30T10:43:54;0.90;;;0.90;;
32790;SDS011;19143;59.322;14.502;2023-08-30T10:46:33;1.10;;;1.00;;
32790;SDS011;19143;59.322;14.502;2023-08-30T10:49:09;1.83;;;1.20;;
32790;SDS011;19143;59.322;14.502;2023-08-30T10:52:11;2.43;;;1.10;;
32790;SDS011;19143;59.322;14.502;2023-08-30T10:54:50;1.23;;;1.10;;
32790;SDS011;19143;59.322;14.502;2023-08-30T11:00:11;1.10;;;1.10;;
32790;SDS011;19143;59.322;14.502;2023-08-30T11:02:52;0.90;;;0.90;;
32790;SDS011;19143;59.322;14.502;2023-08-30T11:05:25;2.63;;;1.20;;
32790;SDS011;19143;59.322;14.502;2023-08-30T11:07:56;1.23;;;1.10;;
32790;SDS011;19143;59.322;14.502;2023-08-30T11:10:31;2.13;;;0.90;;
32790;SDS011;19143;59.322;14.502;2023-08-30T11:13:15;2.57;;;0.90;;
32790;SDS011;19143;59.322;14.502;2023-08-30T11:16:05;2.57;;;1.10;;
32790;SDS011;19143;59.322;14.502;2023-08-30T11:18:42;1.00;;;1.00;;
32790;SDS011;19143;59.322;14.502;2023-08-30T11:21:09;2.33;;;1.00;;
32790;SDS011;19143;59.322;14.502;2023-08-30T11:23:38;1.00;;;0.97;;
32790;SDS011;19143;59.322;14.502;2023-08-30T11:26:04;1.13;;;0.93;;
32790;SDS011;19143;59.322;14.502;2023-08-30T11:28:32;1.40;;;1.00;;
32790;SDS011;19143;59.322;14.502;2023-08-30T11:30:59;1.20;;;1.10;;
32790;SDS011;19143;59.322;14.502;2023-08-30T11:33:25;1.00;;;0.90;;
32790;SDS011;19143;59.322;14.502;2023-08-30T11:35:52;0.90;;;0.90;;
32790;SDS011;19143;59.322;14.502;2023-08-30T11:38:19;2.13;;;1.20;;
32790;SDS011;19143;59.322;14.502;2023-08-30T11:40:45;1.00;;;0.97;;
32790;SDS011;19143;59.322;14.502;2023-08-30T11:43:15;1.50;;;1.00;;
32790;SDS011;19143;59.322;14.502;2023-08-30T11:45:43;1.17;;;1.03;;
32790;SDS011;19143;59.322;14.502;2023-08-30T11:48:09;1.70;;;1.00;;
32790;SDS011;19143;59.322;14.502;2023-08-30T11:50:36;3.30;;;0.90;;
32790;SDS011;19143;59.322;14.502;2023-08-30T11:53:03;2.53;;;1.20;;
32790;SDS011;19143;59.322;14.502;2023-08-30T11:55:29;2.60;;;1.10;;
32790;SDS011;19143;59.322;14.502;2023-08-30T11:57:59;0.93;;;0.93;;
32790;SDS011;19143;59.322;14.502;2023-08-30T12:00:25;0.93;;;0.93;;
32790;SDS011;19143;59.322;14.502;2023-08-30T12:02:54;4.07;;;1.10;;
32790;SDS011;19143;59.322;14.502;2023-08-30T12:05:20;1.63;;;1.00;;
32790;SDS011;19143;59.322;14.502;2023-08-30T12:07:47;1.13;;;1.13;;
32790;SDS011;19143;59.322;14.502;2023-08-30T12:10:14;3.23;;;1.00;;
32790;SDS011;19143;59.322;14.502;2023-08-30T12:12:44;1.00;;;0.80;;
32790;SDS011;19143;59.322;14.502;2023-08-30T12:15:11;1.10;;;1.10;;
32790;SDS011;19143;59.322;14.502;2023-08-30T12:17:38;0.90;;;0.90;;
32790;SDS011;19143;59.322;14.502;2023-08-30T12:20:17;0.97;;;0.97;;
32790;SDS011;19143;59.322;14.502;2023-08-30T12:22:45;2.43;;;1.00;;
32790;SDS011;19143;59.322;14.502;2023-08-30T12:25:16;0.70;;;0.70;;
32790;SDS011;19143;59.322;14.502;2023-08-30T12:27:43;1.00;;;1.00;;
32790;SDS011;19143;59.322;14.502;2023-08-30T12:30:11;1.77;;;1.13;;
32790;SDS011;19143;59.322;14.502;2023-08-30T12:32:38;1.30;;;1.17;;
32790;SDS011;19143;59.322;14.502;2023-08-30T12:35:05;2.10;;;1.10;;
32790;SDS011;19143;59.322;14.502;2023-08-30T12:37:33;1.13;;;1.10;;
32790;SDS011;19143;59.322;14.502;2023-08-30T12:39:59;1.90;;;1.03;;
32790;SDS011;19143;59.322;14.502;2023-08-30T12:42:26;0.97;;;0.97;;
32790;SDS011;19143;59.322;14.502;2023-08-30T12:44:53;0.90;;;0.90;;
32790;SDS011;19143;59.322;14.502;2023-08-30T12:47:19;1.00;;;1.00;;
32790;SDS011;19143;59.322;14.502;2023-08-30T12:49:46;1.13;;;1.13;;
32790;SDS011;19143;59.322;14.502;2023-08-30T12:52:12;1.67;;;1.10;;
32790;SDS011;19143;59.322;14.502;2023-08-30T12:54:41;1.27;;;1.20;;
32790;SDS011;19143;59.322;14.502;2023-08-30T12:57:08;1.20;;;1.10;;
32790;SDS011;19143;59.322;14.502;2023-08-30T12:59:34;2.80;;;1.30;;
32790;SDS011;19143;59.322;14.502;2023-08-30T13:02:01;1.50;;;1.00;;
32790;SDS011;19143;59.322;14.502;2023-08-30T13:04:27;1.50;;;1.40;;
32790;SDS011;19143;59.322;14.502;2023-08-30T13:06:54;1.60;;;1.10;;
32790;SDS011;19143;59.322;14.502;2023-08-30T13:09:20;1.23;;;1.13;;
32790;SDS011;19143;59.322;14.502;2023-08-30T13:11:48;0.93;;;0.90;;
32790;SDS011;19143;59.322;14.502;2023-08-30T13:14:15;1.17;;;1.10;;
32790;SDS011;19143;59.322;14.502;2023-08-30T13:16:42;1.10;;;1.10;;
32790;SDS011;19143;59.322;14.502;2023-08-30T13:19:08;1.30;;;1.20;;
32790;SDS011;19143;59.322;14.502;2023-08-30T13:21:38;2.00;;;1.07;;
32790;SDS011;19143;59.322;14.502;2023-08-30T13:24:06;1.73;;;1.20;;
32790;SDS011;19143;59.322;14.502;2023-08-30T13:26:32;4.90;;;1.17;;
32790;SDS011;19143;59.322;14.502;2023-08-30T13:29:04;1.60;;;1.10;;
32790;SDS011;19143;59.322;14.502;2023-08-30T13:31:46;1.17;;;1.17;;
32790;SDS011;19143;59.322;14.502;2023-08-30T13:34:24;1.10;;;1.10;;
32790;SDS011;19143;59.322;14.502;2023-08-30T13:40:05;4.03;;;1.00;;
32790;SDS011;19143;59.322;14.502;2023-08-30T13:42:36;2.10;;;0.90;;
32790;SDS011;19143;59.322;14.502;2023-08-30T13:45:08;0.83;;;0.83;;
32790;SDS011;19143;59.322;14.502;2023-08-30T13:50:40;1.23;;;1.10;;
32790;SDS011;19143;59.322;14.502;2023-08-30T13:53:10;3.87;;;1.30;;
32790;SDS011;19143;59.322;14.502;2023-08-30T13:55:37;1.20;;;1.00;;
32790;SDS011;19143;59.322;14.502;2023-08-30T13:58:04;1.07;;;0.80;;
32790;SDS011;19143;59.322;14.502;2023-08-30T14:00:32;1.30;;;1.30;;
32790;SDS011;19143;59.322;14.502;2023-08-30T14:02:59;2.83;;;1.07;;
32790;SDS011;19143;59.322;14.502;2023-08-30T14:05:25;1.00;;;1.00;;
32790;SDS011;19143;59.322;14.502;2023-08-30T14:07:52;0.90;;;0.90;;
32790;SDS011;19143;59.322;14.502;2023-08-30T14:10:18;0.90;;;0.90;;
32790;SDS011;19143;59.322;14.502;2023-08-30T14:12:45;1.70;;;1.00;;
32790;SDS011;19143;59.322;14.502;2023-08-30T14:15:12;0.90;;;0.90;;
32790;SDS011;19143;59.322;14.502;2023-08-30T14:17:41;0.97;;;0.97;;
32790;SDS011;19143;59.322;14.502;2023-08-30T14:20:08;2.67;;;1.20;;
32790;SDS011;19143;59.322;14.502;2023-08-30T14:22:42;4.30;;;1.20;;
32790;SDS011;19143;59.322;14.502;2023-08-30T14:25:09;1.87;;;0.90;;
32790;SDS011;19143;59.322;14.502;2023-08-30T14:27:36;1.13;;;1.07;;
32790;SDS011;19143;59.322;14.502;2023-08-30T14:30:04;3.20;;;1.20;;
32790;SDS011;19143;59.322;14.502;2023-08-30T14:32:31;2.40;;;1.10;;
32790;SDS011;19143;59.322;14.502;2023-08-30T14:34:59;1.00;;;1.00;;
32790;SDS011;19143;59.322;14.502;2023-08-30T14:37:26;1.27;;;1.20;;
32790;SDS011;19143;59.322;14.502;2023-08-30T14:39:52;4.30;;;0.93;;
32790;SDS011;19143;59.322;14.502;2023-08-30T14:42:19;1.17;;;1.00;;
32790;SDS011;19143;59.322;14.502;2023-08-30T14:44:48;3.60;;;1.00;;
32790;SDS011;19143;59.322;14.502;2023-08-30T14:47:15;1.10;;;1.10;;
32790;SDS011;19143;59.322;14.502;2023-08-30T14:49:43;1.00;;;1.00;;
32790;SDS011;19143;59.322;14.502;2023-08-30T14:52:10;1.40;;;1.10;;
32790;SDS011;19143;59.322;14.502;2023-08-30T14:54:37;1.37;;;1.27;;
32790;SDS011;19143;59.322;14.502;2023-08-30T14:57:04;1.87;;;1.07;;
32790;SDS011;19143;59.322;14.502;2023-08-30T14:59:32;1.97;;;1.40;;
32790;SDS011;19143;59.322;14.502;2023-08-30T15:02:19;1.13;;;1.00;;
32790;SDS011;19143;59.322;14.502;2023-08-30T15:04:45;1.10;;;1.00;;
32790;SDS011;19143;59.322;14.502;2023-08-30T15:07:13;1.37;;;1.27;;
32790;SDS011;19143;59.322;14.502;2023-08-30T15:09:40;1.00;;;1.00;;
32790;SDS011;19143;59.322;14.502;2023-08-30T15:12:06;3.10;;;1.10;;
32790;SDS011;19143;59.322;14.502;2023-08-30T15:14:34;1.77;;;1.17;;
32790;SDS011;19143;59.322;14.502;2023-08-30T15:17:07;1.27;;;1.00;;
32790;SDS011;19143;59.322;14.502;2023-08-30T15:19:35;1.20;;;1.10;;
32790;SDS011;19143;59.322;14.502;2023-08-30T15:22:02;2.00;;;1.30;;
32790;SDS011;19143;59.322;14.502;2023-08-30T15:24:30;3.13;;;1.10;;
32790;SDS011;19143;59.322;14.502;2023-08-30T15:26:56;3.10;;;1.40;;
32790;SDS011;19143;59.322;14.502;2023-08-30T15:29:23;1.67;;;1.00;;
32790;SDS011;19143;59.322;14.502;2023-08-30T15:31:49;4.73;;;1.27;;
32790;SDS011;19143;59.322;14.502;2023-08-30T15:34:18;1.07;;;0.93;;
32790;SDS011;19143;59.322;14.502;2023-08-30T15:36:44;1.73;;;0.90;;
32790;SDS011;19143;59.322;14.502;2023-08-30T15:39:14;1.10;;;1.10;;
32790;SDS011;19143;59.322;14.502;2023-08-30T15:41:44;2.60;;;1.10;;
32790;SDS011;19143;59.322;14.502;2023-08-30T15:44:12;0.87;;;0.87;;
32790;SDS011;19143;59.322;14.502;2023-08-30T15:46:40;2.67;;;1.00;;
32790;SDS011;19143;59.322;14.502;2023-08-30T15:49:13;5.20;;;0.97;;
32790;SDS011;19143;59.322;14.502;2023-08-30T15:51:53;1.10;;;1.00;;
32790;SDS011;19143;59.322;14.502;2023-08-30T15:54:25;1.57;;;0.80;;
32790;SDS011;19143;59.322;14.502;2023-08-30T15:57:04;1.10;;;1.10;;
32790;SDS011;19143;59.322;14.502;2023-08-30T15:59:31;1.03;;;0.80;;
32790;SDS011;19143;59.322;14.502;2023-08-30T16:01:57;2.83;;;1.00;;
32790;SDS011;19143;59.322;14.502;2023-08-30T16:04:25;1.00;;;1.00;;
32790;SDS011;19143;59.322;14.502;2023-08-30T16:06:58;1.10;;;1.10;;
32790;SDS011;19143;59.322;14.502;2023-08-30T16:09:26;0.80;;;0.80;;
32790;SDS011;19143;59.322;14.502;2023-08-30T16:11:52;0.90;;;0.90;;
32790;SDS011;19143;59.322;14.502;2023-08-30T16:14:20;1.00;;;1.00;;
32790;SDS011;19143;59.322;14.502;2023-08-30T16:16:47;2.00;;;1.03;;
32790;SDS011;19143;59.322;14.502;2023-08-30T16:19:13;2.70;;;1.00;;
32790;SDS011;19143;59.322;14.502;2023-08-30T16:21:41;1.07;;;1.07;;
32790;SDS011;19143;59.322;14.502;2023-08-30T16:24:08;0.90;;;0.90;;
32790;SDS011;19143;59.322;14.502;2023-08-30T16:26:35;1.10;;;0.90;;
32790;SDS011;19143;59.322;14.502;2023-08-30T16:29:01;1.27;;;1.17;;
32790;SDS011;19143;59.322;14.502;2023-08-30T16:31:31;0.90;;;0.90;;
32790;SDS011;19143;59.322;14.502;2023-08-30T16:33:58;1.00;;;0.90;;
32790;SDS011;19143;59.322;14.502;2023-08-30T16:36:25;1.00;;;1.00;;
32790;SDS011;19143;59.322;14.502;2023-08-30T16:38:51;2.60;;;0.97;;
32790;SDS011;19143;59.322;14.502;2023-08-30T16:41:18;1.07;;;1.07;;
32790;SDS011;19143;59.322;14.502;2023-08-30T16:43:45;1.10;;;1.00;;
32790;SDS011;19143;59.322;14.502;2023-08-30T16:46:18;1.73;;;1.10;;
32790;SDS011;19143;59.322;14.502;2023-08-30T16:48:45;0.90;;;0.90;;
32790;SDS011;19143;59.322;14.502;2023-08-30T16:51:12;1.17;;;1.00;;
32790;SDS011;19143;59.322;14.502;2023-08-30T16:53:39;3.47;;;0.93;;
32790;SDS011;19143;59.322;14.502;2023-08-30T16:56:05;3.10;;;1.10;;
32790;SDS011;19143;59.322;14.502;2023-08-30T16:58:32;2.10;;;0.80;;
32790;SDS011;19143;59.322;14.502;2023-08-30T17:00:58;1.17;;;1.00;;
32790;SDS011;19143;59.322;14.502;2023-08-30T17:03:25;0.93;;;0.93;;
32790;SDS011;19143;59.322;14.502;2023-08-30T17:05:52;0.83;;;0.83;;
32790;SDS011;19143;59.322;14.502;2023-08-30T17:08:25;1.60;;;1.00;;
32790;SDS011;19143;59.322;14.502;2023-08-30T17:10:51;1.20;;;1.10;;
32790;SDS011;19143;59.322;14.502;2023-08-30T17:13:18;0.90;;;0.90;;
32790;SDS011;19143;59.322;14.502;2023-08-30T17:15:48;0.80;;;0.80;;
32790;SDS011;19143;59.322;14.502;2023-08-30T17:18:15;1.70;;;1.03;;
32790;SDS011;19143;59.322;14.502;2023-08-30T17:20:41;0.73;;;0.73;;
32790;SDS011;19143;59.322;14.502;2023-08-30T17:23:09;1.27;;;0.97;;
32790;SDS011;19143;59.322;14.502;2023-08-30T17:25:36;1.00;;;1.00;;
32790;SDS011;19143;59.322;14.502;2023-08-30T17:28:02;3.33;;;1.00;;
32790;SDS011;19143;59.322;14.502;2023-08-30T17:30:30;1.10;;;1.10;;
32790;SDS011;19143;59.322;14.502;2023-08-30T17:32:56;1.00;;;1.00;;
32790;SDS011;19143;59.322;14.502;2023-08-30T17:35:24;0.90;;;0.90;;
32790;SDS011;19143;59.322;14.502;2023-08-30T17:37:51;2.73;;;1.20;;
32790;SDS011;19143;59.322;14.502;2023-08-30T17:40:18;6.20;;;1.20;;
32790;SDS011;19143;59.322;14.502;2023-08-30T17:42:45;1.00;;;1.00;;
32790;SDS011;19143;59.322;14.502;2023-08-30T17:45:12;0.90;;;0.90;;
32790;SDS011;19143;59.322;14.502;2023-08-30T17:47:39;0.97;;;0.97;;
32790;SDS011;19143;59.322;14.502;2023-08-30T17:50:05;1.00;;;1.00;;
32790;SDS011;19143;59.322;14.502;2023-08-30T17:52:32;1.87;;;1.00;;
32790;SDS011;19143;59.322;14.502;2023-08-30T17:54:58;2.70;;;1.63;;
32790;SDS011;19143;59.322;14.502;2023-08-30T17:57:27;2.57;;;2.20;;
32790;SDS011;19143;59.322;14.502;2023-08-30T17:59:59;6.90;;;3.50;;
32790;SDS011;19143;59.322;14.502;2023-08-30T18:02:29;11.67;;;6.17;;
32790;SDS011;19143;59.322;14.502;2023-08-30T18:04:56;11.37;;;4.60;;
32790;SDS011;19143;59.322;14.502;2023-08-30T18:07:27;7.53;;;3.57;;
32790;SDS011;19143;59.322;14.502;2023-08-30T18:09:54;5.90;;;2.67;;
32790;SDS011;19143;59.322;14.502;2023-08-30T18:12:21;5.13;;;2.20;;
32790;SDS011;19143;59.322;14.502;2023-08-30T18:14:51;2.47;;;2.27;;
32790;SDS011;19143;59.322;14.502;2023-08-30T18:17:18;5.63;;;2.27;;
32790;SDS011;19143;59.322;14.502;2023-08-30T18:19:44;2.80;;;1.60;;
32790;SDS011;19143;59.322;14.502;2023-08-30T18:22:11;2.43;;;1.50;;
32790;SDS011;19143;59.322;14.502;2023-08-30T18:24:38;9.63;;;1.47;;
32790;SDS011;19143;59.322;14.502;2023-08-30T18:27:16;3.10;;;1.50;;
32790;SDS011;19143;59.322;14.502;2023-08-30T18:29:42;1.40;;;1.30;;
32790;SDS011;19143;59.322;14.502;2023-08-30T18:35:16;4.23;;;1.40;;
32790;SDS011;19143;59.322;14.502;2023-08-30T18:37:43;2.73;;;1.33;;
32790;SDS011;19143;59.322;14.502;2023-08-30T18:40:10;3.30;;;1.30;;
32790;SDS011;19143;59.322;14.502;2023-08-30T18:42:37;3.83;;;1.97;;
32790;SDS011;19143;59.322;14.502;2023-08-30T18:45:07;3.90;;;1.50;;
32790;SDS011;19143;59.322;14.502;2023-08-30T18:47:34;7.23;;;1.60;;
32790;SDS011;19143;59.322;14.502;2023-08-30T18:50:02;1.80;;;1.50;;
32790;SDS011;19143;59.322;14.502;2023-08-30T18:52:31;2.03;;;1.20;;
32790;SDS011;19143;59.322;14.502;2023-08-30T18:54:58;4.77;;;1.50;;
32790;SDS011;19143;59.322;14.502;2023-08-30T18:57:26;6.53;;;1.57;;
32790;SDS011;19143;59.322;14.502;2023-08-30T18:59:54;3.40;;;1.23;;
32790;SDS011;19143;59.322;14.502;2023-08-30T19:02:23;2.83;;;1.40;;
32790;SDS011;19143;59.322;14.502;2023-08-30T19:05:04;1.63;;;1.20;;
32790;SDS011;19143;59.322;14.502;2023-08-30T19:07:35;3.57;;;1.60;;
32790;SDS011;19143;59.322;14.502;2023-08-30T19:10:02;5.83;;;1.60;;
32790;SDS011;19143;59.322;14.502;2023-08-30T19:12:29;1.60;;;1.50;;
32790;SDS011;19143;59.322;14.502;2023-08-30T19:15:01;2.00;;;1.60;;